sensor_id;sensor_type;location;lat;lon;timestamp;temperature;humidity
36458;DHT22;22480;50.546;12.292;2022-10-14T00:00:22;9.40;99.90
36458;DHT22;22480;50.546;12.292;2022-10-14T00:02:47;9.30;99.90
36458;DHT22;22480;50.546;12.292;2022-10-14T00:05:14;9.30;99.90
36458;DHT22;22480;50.546;12.292;2022-10-14T00:07:40;9.30;99.90
36458;DHT22;22480;50.546;12.292;2022-10-14T00:10:06;9.30;99.90
36458;DHT22;22480;50.546;12.292;2022-10-14T00:12:33;9.30;99.90
36458;DHT22;22480;50.546;12.292;2022-10-14T00:14:59;9.40;99.90
36458;DHT22;22480;50.546;12.292;2022-10-14T00:17:25;9.50;99.90
36458;DHT22;22480;50.546;12.292;2022-10-14T00:19:51;9.50;99.90
36458;DHT22;22480;50.546;12.292;2022-10-14T00:22:17;9.70;99.90
36458;DHT22;22480;50.546;12.292;2022-10-14T00:24:43;9.80;99.90
36458;DHT22;22480;50.546;12.292;2022-10-14T00:27:08;9.80;99.90
36458;DHT22;22480;50.546;12.292;2022-10-14T00:29:34;9.90;99.90
36458;DHT22;22480;50.546;12.292;2022-10-14T00:32:00;9.90;99.90
36458;DHT22;22480;50.546;12.292;2022-10-14T00:34:26;10.00;99.90
36458;DHT22;22480;50.546;12.292;2022-10-14T00:36:52;10.10;99.90
36458;DHT22;22480;50.546;12.292;2022-10-14T00:39:19;10.10;99.90
36458;DHT22;22480;50.546;12.292;2022-10-14T00:41:45;10.10;99.90
36458;DHT22;22480;50.546;12.292;2022-10-14T00:46:42;10.20;99.90
36458;DHT22;22480;50.546;12.292;2022-10-14T00:49:12;10.20;99.90
36458;DHT22;22480;50.546;12.292;2022-10-14T00:51:41;10.30;99.90
36458;DHT22;22480;50.546;12.292;2022-10-14T00:54:08;10.30;99.90
36458;DHT22;22480;50.546;12.292;2022-10-14T00:56:36;10.30;99.90
36458;DHT22;22480;50.546;12.292;2022-10-14T00:59:04;10.40;99.90
36458;DHT22;22480;50.546;12.292;2022-10-14T01:01:31;10.40;99.90
36458;DHT22;22480;50.546;12.292;2022-10-14T01:03:57;10.50;99.90
36458;DHT22;22480;50.546;12.292;2022-10-14T01:09:05;10.50;99.90
36458;DHT22;22480;50.546;12.292;2022-10-14T01:11:46;10.50;99.90
36458;DHT22;22480;50.546;12.292;2022-10-14T01:14:23;10.50;99.90
36458;DHT22;22480;50.546;12.292;2022-10-14T01:22:37;10.50;99.90
36458;DHT22;22480;50.546;12.292;2022-10-14T01:25:42;10.50;99.90
36458;DHT22;22480;50.546;12.292;2022-10-14T01:31:12;10.50;99.90
36458;DHT22;22480;50.546;12.292;2022-10-14T01:33:44;10.50;99.90
36458;DHT22;22480;50.546;12.292;2022-10-14T01:36:36;10.60;99.90
36458;DHT22;22480;50.546;12.292;2022-10-14T01:39:19;10.60;99.90
36458;DHT22;22480;50.546;12.292;2022-10-14T01:41:50;10.60;99.90
36458;DHT22;22480;50.546;12.292;2022-10-14T01:44:18;10.60;99.90
36458;DHT22;22480;50.546;12.292;2022-10-14T01:46:51;10.60;99.90
36458;DHT22;22480;50.546;12.292;2022-10-14T01:49:37;10.70;99.90
36458;DHT22;22480;50.546;12.292;2022-10-14T01:52:11;10.70;99.90
36458;DHT22;22480;50.546;12.292;2022-10-14T01:54:40;10.70;99.90
36458;DHT22;22480;50.546;12.292;2022-10-14T01:57:12;10.70;99.90
36458;DHT22;22480;50.546;12.292;2022-10-14T01:59:40;10.70;99.90
36458;DHT22;22480;50.546;12.292;2022-10-14T02:02:07;10.70;99.90
36458;DHT22;22480;50.546;12.292;2022-10-14T02:04:32;10.70;99.90
36458;DHT22;22480;50.546;12.292;2022-10-14T02:07:18;10.70;99.90
36458;DHT22;22480;50.546;12.292;2022-10-14T02:10:00;10.70;99.90
36458;DHT22;22480;50.546;12.292;2022-10-14T02:12:44;10.70;99.90
36458;DHT22;22480;50.546;12.292;2022-10-14T02:20:51;10.60;99.90
36458;DHT22;22480;50.546;12.292;2022-10-14T02:23:23;10.60;99.90
36458;DHT22;22480;50.546;12.292;2022-10-14T02:25:54;10.60;99.90
36458;DHT22;22480;50.546;12.292;2022-10-14T02:28:23;10.60;99.90
36458;DHT22;22480;50.546;12.292;2022-10-14T02:30:59;10.50;99.90
36458;DHT22;22480;50.546;12.292;2022-10-14T02:33:32;10.60;99.90
36458;DHT22;22480;50.546;12.292;2022-10-14T02:36:00;10.50;99.90
36458;DHT22;22480;50.546;12.292;2022-10-14T02:38:28;10.50;99.90
36458;DHT22;22480;50.546;12.292;2022-10-14T02:40:58;10.50;99.90
36458;DHT22;22480;50.546;12.292;2022-10-14T02:43:25;10.50;99.90
36458;DHT22;22480;50.546;12.292;2022-10-14T02:45:56;10.50;99.90
36458;DHT22;22480;50.546;12.292;2022-10-14T02:48:23;10.60;99.90
36458;DHT22;22480;50.546;12.292;2022-10-14T02:50:49;10.50;99.90
36458;DHT22;22480;50.546;12.292;2022-10-14T02:53:15;10.50;99.90
36458;DHT22;22480;50.546;12.292;2022-10-14T02:55:44;10.50;99.90
36458;DHT22;22480;50.546;12.292;2022-10-14T02:58:10;10.50;99.90
36458;DHT22;22480;50.546;12.292;2022-10-14T03:00:35;10.50;99.90
36458;DHT22;22480;50.546;12.292;2022-10-14T03:03:01;10.50;99.90
36458;DHT22;22480;50.546;12.292;2022-10-14T03:05:28;10.50;99.90
36458;DHT22;22480;50.546;12.292;2022-10-14T03:07:54;10.50;99.90
36458;DHT22;22480;50.546;12.292;2022-10-14T03:10:21;10.50;99.90
36458;DHT22;22480;50.546;12.292;2022-10-14T03:12:48;10.50;99.90
36458;DHT22;22480;50.546;12.292;2022-10-14T03:15:23;10.50;99.90
36458;DHT22;22480;50.546;12.292;2022-10-14T03:17:49;10.50;99.90
36458;DHT22;22480;50.546;12.292;2022-10-14T03:20:19;10.50;99.90
36458;DHT22;22480;50.546;12.292;2022-10-14T03:22:51;10.50;99.90
36458;DHT22;22480;50.546;12.292;2022-10-14T03:25:17;10.50;99.90
36458;DHT22;22480;50.546;12.292;2022-10-14T03:28:03;10.50;99.90
36458;DHT22;22480;50.546;12.292;2022-10-14T03:30:39;10.60;99.90
36458;DHT22;22480;50.546;12.292;2022-10-14T03:33:11;10.60;99.90
36458;DHT22;22480;50.546;12.292;2022-10-14T03:35:57;10.60;99.90
36458;DHT22;22480;50.546;12.292;2022-10-14T03:38:36;10.60;99.90
36458;DHT22;22480;50.546;12.292;2022-10-14T03:41:01;10.70;99.90
36458;DHT22;22480;50.546;12.292;2022-10-14T03:43:27;10.70;99.90
36458;DHT22;22480;50.546;12.292;2022-10-14T03:45:57;10.70;99.90
36458;DHT22;22480;50.546;12.292;2022-10-14T03:48:24;10.80;99.90
36458;DHT22;22480;50.546;12.292;2022-10-14T03:50:49;10.80;99.90
36458;DHT22;22480;50.546;12.292;2022-10-14T03:53:17;10.80;99.90
36458;DHT22;22480;50.546;12.292;2022-10-14T03:55:44;10.80;99.90
36458;DHT22;22480;50.546;12.292;2022-10-14T03:58:11;10.80;99.90
36458;DHT22;22480;50.546;12.292;2022-10-14T04:00:42;10.90;99.90
36458;DHT22;22480;50.546;12.292;2022-10-14T04:03:21;10.80;99.90
36458;DHT22;22480;50.546;12.292;2022-10-14T04:05:47;10.80;99.90
36458;DHT22;22480;50.546;12.292;2022-10-14T04:08:19;10.90;99.90
36458;DHT22;22480;50.546;12.292;2022-10-14T04:10:55;10.90;99.90
36458;DHT22;22480;50.546;12.292;2022-10-14T04:13:22;10.80;99.90
36458;DHT22;22480;50.546;12.292;2022-10-14T04:15:48;10.80;99.90
36458;DHT22;22480;50.546;12.292;2022-10-14T04:18:28;10.80;99.90
36458;DHT22;22480;50.546;12.292;2022-10-14T04:21:01;10.90;99.90
36458;DHT22;22480;50.546;12.292;2022-10-14T04:23:28;10.90;99.90
36458;DHT22;22480;50.546;12.292;2022-10-14T04:26:05;10.90;99.90
36458;DHT22;22480;50.546;12.292;2022-10-14T04:28:32;10.90;99.90
36458;DHT22;22480;50.546;12.292;2022-10-14T04:31:06;10.90;99.90
36458;DHT22;22480;50.546;12.292;2022-10-14T04:33:43;10.90;99.90
36458;DHT22;22480;50.546;12.292;2022-10-14T04:36:17;10.90;99.90
36458;DHT22;22480;50.546;12.292;2022-10-14T04:38:43;11.00;99.90
36458;DHT22;22480;50.546;12.292;2022-10-14T04:41:09;11.00;99.90
36458;DHT22;22480;50.546;12.292;2022-10-14T04:43:39;11.00;99.90
36458;DHT22;22480;50.546;12.292;2022-10-14T04:46:18;11.00;99.90
36458;DHT22;22480;50.546;12.292;2022-10-14T04:48:46;11.10;99.90
36458;DHT22;22480;50.546;12.292;2022-10-14T04:51:13;11.10;99.90
36458;DHT22;22480;50.546;12.292;2022-10-14T04:53:59;11.10;99.90
36458;DHT22;22480;50.546;12.292;2022-10-14T04:56:51;11.10;99.90
36458;DHT22;22480;50.546;12.292;2022-10-14T04:59:16;11.10;99.90
36458;DHT22;22480;50.546;12.292;2022-10-14T05:01:54;11.10;99.90
36458;DHT22;22480;50.546;12.292;2022-10-14T05:04:20;11.10;99.90
36458;DHT22;22480;50.546;12.292;2022-10-14T05:06:47;11.10;99.90
36458;DHT22;22480;50.546;12.292;2022-10-14T05:09:16;11.10;99.90
36458;DHT22;22480;50.546;12.292;2022-10-14T05:11:42;11.10;99.90
36458;DHT22;22480;50.546;12.292;2022-10-14T05:14:11;11.10;99.90
36458;DHT22;22480;50.546;12.292;2022-10-14T05:16:37;11.10;99.90
36458;DHT22;22480;50.546;12.292;2022-10-14T05:19:05;11.10;99.90
36458;DHT22;22480;50.546;12.292;2022-10-14T05:21:34;11.00;99.90
36458;DHT22;22480;50.546;12.292;2022-10-14T05:24:11;11.00;99.90
36458;DHT22;22480;50.546;12.292;2022-10-14T05:26:40;11.00;99.90
36458;DHT22;22480;50.546;12.292;2022-10-14T05:29:12;11.10;99.90
36458;DHT22;22480;50.546;12.292;2022-10-14T05:31:39;11.10;99.90
36458;DHT22;22480;50.546;12.292;2022-10-14T05:34:18;11.10;99.90
36458;DHT22;22480;50.546;12.292;2022-10-14T05:36:44;11.00;99.90
36458;DHT22;22480;50.546;12.292;2022-10-14T05:39:11;11.10;99.90
36458;DHT22;22480;50.546;12.292;2022-10-14T05:41:38;11.10;99.90
36458;DHT22;22480;50.546;12.292;2022-10-14T05:44:05;11.10;99.90
36458;DHT22;22480;50.546;12.292;2022-10-14T05:46:32;11.10;99.90
36458;DHT22;22480;50.546;12.292;2022-10-14T05:48:57;11.10;99.90
36458;DHT22;22480;50.546;12.292;2022-10-14T05:51:25;11.10;99.90
36458;DHT22;22480;50.546;12.292;2022-10-14T05:53:58;11.10;99.90
36458;DHT22;22480;50.546;12.292;2022-10-14T05:56:25;11.10;99.90
36458;DHT22;22480;50.546;12.292;2022-10-14T05:58:51;11.10;99.90
36458;DHT22;22480;50.546;12.292;2022-10-14T06:01:16;11.20;99.90
36458;DHT22;22480;50.546;12.292;2022-10-14T06:03:42;11.20;99.90
36458;DHT22;22480;50.546;12.292;2022-10-14T06:06:13;11.20;99.90
36458;DHT22;22480;50.546;12.292;2022-10-14T06:08:39;11.30;99.90
36458;DHT22;22480;50.546;12.292;2022-10-14T06:11:05;11.30;99.90
36458;DHT22;22480;50.546;12.292;2022-10-14T06:13:33;11.30;99.90
36458;DHT22;22480;50.546;12.292;2022-10-14T06:16:03;11.40;99.90
36458;DHT22;22480;50.546;12.292;2022-10-14T06:18:30;11.40;99.90
36458;DHT22;22480;50.546;12.292;2022-10-14T06:20:56;11.40;99.90
36458;DHT22;22480;50.546;12.292;2022-10-14T06:23:22;11.40;99.90
36458;DHT22;22480;50.546;12.292;2022-10-14T06:25:48;11.40;99.90
36458;DHT22;22480;50.546;12.292;2022-10-14T06:28:14;11.40;99.90
36458;DHT22;22480;50.546;12.292;2022-10-14T06:30:40;11.40;99.90
36458;DHT22;22480;50.546;12.292;2022-10-14T06:33:06;11.40;99.90
36458;DHT22;22480;50.546;12.292;2022-10-14T06:35:31;11.30;99.90
36458;DHT22;22480;50.546;12.292;2022-10-14T06:37:57;11.30;99.90
36458;DHT22;22480;50.546;12.292;2022-10-14T06:40:23;11.30;99.90
36458;DHT22;22480;50.546;12.292;2022-10-14T06:42:49;11.30;99.90
36458;DHT22;22480;50.546;12.292;2022-10-14T06:45:16;11.30;99.90
36458;DHT22;22480;50.546;12.292;2022-10-14T06:47:41;11.30;99.90
36458;DHT22;22480;50.546;12.292;2022-10-14T06:50:07;11.30;99.90
36458;DHT22;22480;50.546;12.292;2022-10-14T06:52:33;11.30;99.90
36458;DHT22;22480;50.546;12.292;2022-10-14T06:54:59;11.30;99.90
36458;DHT22;22480;50.546;12.292;2022-10-14T06:57:24;11.40;99.90
36458;DHT22;22480;50.546;12.292;2022-10-14T06:59:50;11.50;99.90
36458;DHT22;22480;50.546;12.292;2022-10-14T07:02:16;11.50;99.90
36458;DHT22;22480;50.546;12.292;2022-10-14T07:04:42;11.60;99.90
36458;DHT22;22480;50.546;12.292;2022-10-14T07:07:08;11.70;99.90
36458;DHT22;22480;50.546;12.292;2022-10-14T07:09:34;11.80;99.90
36458;DHT22;22480;50.546;12.292;2022-10-14T07:12:00;11.90;99.90
36458;DHT22;22480;50.546;12.292;2022-10-14T07:14:25;11.90;99.90
36458;DHT22;22480;50.546;12.292;2022-10-14T07:16:51;12.00;99.90
36458;DHT22;22480;50.546;12.292;2022-10-14T07:19:17;12.00;99.90
36458;DHT22;22480;50.546;12.292;2022-10-14T07:21:43;12.10;99.90
36458;DHT22;22480;50.546;12.292;2022-10-14T07:24:11;12.20;99.90
36458;DHT22;22480;50.546;12.292;2022-10-14T07:26:37;12.20;99.90
36458;DHT22;22480;50.546;12.292;2022-10-14T07:29:04;12.30;99.90
36458;DHT22;22480;50.546;12.292;2022-10-14T07:31:30;12.30;99.90
36458;DHT22;22480;50.546;12.292;2022-10-14T07:33:56;12.40;99.90
36458;DHT22;22480;50.546;12.292;2022-10-14T07:36:22;12.40;99.90
36458;DHT22;22480;50.546;12.292;2022-10-14T07:38:48;12.50;99.90
36458;DHT22;22480;50.546;12.292;2022-10-14T07:41:17;12.40;99.90
36458;DHT22;22480;50.546;12.292;2022-10-14T07:43:49;12.50;99.90
36458;DHT22;22480;50.546;12.292;2022-10-14T07:46:17;12.50;99.90
36458;DHT22;22480;50.546;12.292;2022-10-14T07:48:53;12.60;99.90
36458;DHT22;22480;50.546;12.292;2022-10-14T07:51:19;12.70;99.90
36458;DHT22;22480;50.546;12.292;2022-10-14T07:53:45;12.80;99.90
36458;DHT22;22480;50.546;12.292;2022-10-14T07:56:12;13.00;99.90
36458;DHT22;22480;50.546;12.292;2022-10-14T07:58:38;13.20;99.90
36458;DHT22;22480;50.546;12.292;2022-10-14T08:01:04;13.40;99.90
36458;DHT22;22480;50.546;12.292;2022-10-14T08:03:30;13.50;99.90
36458;DHT22;22480;50.546;12.292;2022-10-14T08:06:00;13.70;99.90
36458;DHT22;22480;50.546;12.292;2022-10-14T08:08:26;13.80;99.90
36458;DHT22;22480;50.546;12.292;2022-10-14T08:11:20;13.90;99.90
36458;DHT22;22480;50.546;12.292;2022-10-14T08:13:46;13.80;99.90
36458;DHT22;22480;50.546;12.292;2022-10-14T08:18:38;13.50;99.90
36458;DHT22;22480;50.546;12.292;2022-10-14T08:21:04;13.50;99.90
36458;DHT22;22480;50.546;12.292;2022-10-14T08:23:29;13.50;99.90
36458;DHT22;22480;50.546;12.292;2022-10-14T08:25:57;13.80;99.90
36458;DHT22;22480;50.546;12.292;2022-10-14T08:28:23;13.80;99.90
36458;DHT22;22480;50.546;12.292;2022-10-14T08:30:49;13.90;99.90
36458;DHT22;22480;50.546;12.292;2022-10-14T08:33:17;13.90;99.90
36458;DHT22;22480;50.546;12.292;2022-10-14T08:35:43;13.90;99.90
36458;DHT22;22480;50.546;12.292;2022-10-14T08:38:09;13.80;99.90
36458;DHT22;22480;50.546;12.292;2022-10-14T08:41:03;13.90;99.90
36458;DHT22;22480;50.546;12.292;2022-10-14T08:46:44;14.20;99.90
36458;DHT22;22480;50.546;12.292;2022-10-14T08:49:36;14.30;99.90
36458;DHT22;22480;50.546;12.292;2022-10-14T08:52:11;14.40;99.90
36458;DHT22;22480;50.546;12.292;2022-10-14T08:54:50;14.60;99.90
36458;DHT22;22480;50.546;12.292;2022-10-14T08:57:20;14.60;99.90
36458;DHT22;22480;50.546;12.292;2022-10-14T08:59:46;14.60;99.90
36458;DHT22;22480;50.546;12.292;2022-10-14T09:02:28;14.80;99.90
36458;DHT22;22480;50.546;12.292;2022-10-14T09:04:58;14.90;99.90
36458;DHT22;22480;50.546;12.292;2022-10-14T09:07:24;15.00;99.90
36458;DHT22;22480;50.546;12.292;2022-10-14T09:10:04;14.90;99.90
36458;DHT22;22480;50.546;12.292;2022-10-14T09:12:33;15.20;99.90
36458;DHT22;22480;50.546;12.292;2022-10-14T09:17:51;15.20;99.90
36458;DHT22;22480;50.546;12.292;2022-10-14T09:20:22;15.10;99.90
36458;DHT22;22480;50.546;12.292;2022-10-14T09:23:16;15.00;99.90
36458;DHT22;22480;50.546;12.292;2022-10-14T09:25:54;15.00;99.90
36458;DHT22;22480;50.546;12.292;2022-10-14T09:28:26;15.00;99.90
36458;DHT22;22480;50.546;12.292;2022-10-14T09:30:54;15.00;99.90
36458;DHT22;22480;50.546;12.292;2022-10-14T09:33:20;14.90;99.90
36458;DHT22;22480;50.546;12.292;2022-10-14T09:35:46;14.90;99.90
36458;DHT22;22480;50.546;12.292;2022-10-14T09:38:13;14.80;99.90
36458;DHT22;22480;50.546;12.292;2022-10-14T09:40:44;14.60;99.90
36458;DHT22;22480;50.546;12.292;2022-10-14T09:43:17;14.60;99.90
36458;DHT22;22480;50.546;12.292;2022-10-14T09:45:56;14.80;99.90
36458;DHT22;22480;50.546;12.292;2022-10-14T09:48:30;14.90;99.90
36458;DHT22;22480;50.546;12.292;2022-10-14T09:51:02;14.90;99.90
36458;DHT22;22480;50.546;12.292;2022-10-14T09:53:32;15.00;99.90
36458;DHT22;22480;50.546;12.292;2022-10-14T09:56:06;15.30;99.90
36458;DHT22;22480;50.546;12.292;2022-10-14T09:58:45;15.60;99.90
36458;DHT22;22480;50.546;12.292;2022-10-14T10:01:20;15.60;99.90
36458;DHT22;22480;50.546;12.292;2022-10-14T10:03:48;15.60;99.90
36458;DHT22;22480;50.546;12.292;2022-10-14T10:06:17;15.50;99.90
36458;DHT22;22480;50.546;12.292;2022-10-14T10:11:29;15.20;99.90
36458;DHT22;22480;50.546;12.292;2022-10-14T10:13:58;15.00;99.90
36458;DHT22;22480;50.546;12.292;2022-10-14T10:16:26;15.00;99.90
36458;DHT22;22480;50.546;12.292;2022-10-14T10:18:54;15.20;99.90
36458;DHT22;22480;50.546;12.292;2022-10-14T10:21:27;15.60;99.90
36458;DHT22;22480;50.546;12.292;2022-10-14T10:24:01;16.20;99.90
36458;DHT22;22480;50.546;12.292;2022-10-14T10:26:29;16.50;99.90
36458;DHT22;22480;50.546;12.292;2022-10-14T10:28:59;16.70;99.90
36458;DHT22;22480;50.546;12.292;2022-10-14T10:34:31;16.60;99.90
36458;DHT22;22480;50.546;12.292;2022-10-14T10:37:07;16.90;99.90
36458;DHT22;22480;50.546;12.292;2022-10-14T10:45:18;17.00;99.90
36458;DHT22;22480;50.546;12.292;2022-10-14T10:53:47;16.30;99.90
36458;DHT22;22480;50.546;12.292;2022-10-14T11:07:56;15.90;99.90
36458;DHT22;22480;50.546;12.292;2022-10-14T11:11:07;16.00;99.90
36458;DHT22;22480;50.546;12.292;2022-10-14T11:20:24;16.30;99.90
36458;DHT22;22480;50.546;12.292;2022-10-14T11:25:54;17.00;99.90
36458;DHT22;22480;50.546;12.292;2022-10-14T11:33:32;18.40;99.90
36458;DHT22;22480;50.546;12.292;2022-10-14T11:36:06;18.80;99.90
36458;DHT22;22480;50.546;12.292;2022-10-14T11:39:07;19.00;99.90
36458;DHT22;22480;50.546;12.292;2022-10-14T11:41:56;18.70;98.60
36458;DHT22;22480;50.546;12.292;2022-10-14T11:44:35;18.20;98.60
36458;DHT22;22480;50.546;12.292;2022-10-14T11:47:27;17.80;99.80
36458;DHT22;22480;50.546;12.292;2022-10-14T11:50:11;17.40;99.90
36458;DHT22;22480;50.546;12.292;2022-10-14T11:52:42;17.40;99.90
36458;DHT22;22480;50.546;12.292;2022-10-14T11:55:21;17.30;99.90
36458;DHT22;22480;50.546;12.292;2022-10-14T11:57:58;17.20;99.90
36458;DHT22;22480;50.546;12.292;2022-10-14T12:06:05;16.80;99.90
36458;DHT22;22480;50.546;12.292;2022-10-14T12:14:46;16.50;99.90
36458;DHT22;22480;50.546;12.292;2022-10-14T12:17:52;16.70;99.90
36458;DHT22;22480;50.546;12.292;2022-10-14T12:19:52;17.20;99.90
36458;DHT22;22480;50.546;12.292;2022-10-14T12:22:26;17.70;99.90
36458;DHT22;22480;50.546;12.292;2022-10-14T12:24:56;17.90;99.90
36458;DHT22;22480;50.546;12.292;2022-10-14T12:27:27;17.80;99.90
36458;DHT22;22480;50.546;12.292;2022-10-14T12:29:53;17.60;99.90
36458;DHT22;22480;50.546;12.292;2022-10-14T12:32:24;17.60;99.90
36458;DHT22;22480;50.546;12.292;2022-10-14T12:34:52;17.70;99.90
36458;DHT22;22480;50.546;12.292;2022-10-14T12:45:22;18.50;99.90
36458;DHT22;22480;50.546;12.292;2022-10-14T12:48:02;19.10;99.90
36458;DHT22;22480;50.546;12.292;2022-10-14T12:50:33;19.70;99.30
36458;DHT22;22480;50.546;12.292;2022-10-14T12:53:03;19.50;97.50
36458;DHT22;22480;50.546;12.292;2022-10-14T12:55:38;19.50;99.70
36458;DHT22;22480;50.546;12.292;2022-10-14T12:58:22;19.90;99.30
36458;DHT22;22480;50.546;12.292;2022-10-14T13:00:58;20.90;96.20
36458;DHT22;22480;50.546;12.292;2022-10-14T13:03:28;21.70;93.70
36458;DHT22;22480;50.546;12.292;2022-10-14T13:14:30;20.00;90.90
36458;DHT22;22480;50.546;12.292;2022-10-14T13:16:58;18.70;93.40
36458;DHT22;22480;50.546;12.292;2022-10-14T13:22:00;17.50;98.80
36458;DHT22;22480;50.546;12.292;2022-10-14T13:24:46;17.30;99.30
36458;DHT22;22480;50.546;12.292;2022-10-14T13:27:21;17.40;99.30
36458;DHT22;22480;50.546;12.292;2022-10-14T13:30:12;17.50;99.90
36458;DHT22;22480;50.546;12.292;2022-10-14T13:32:56;17.10;99.90
36458;DHT22;22480;50.546;12.292;2022-10-14T13:35:44;16.60;99.90
36458;DHT22;22480;50.546;12.292;2022-10-14T13:38:14;16.40;99.90
36458;DHT22;22480;50.546;12.292;2022-10-14T13:40:50;16.30;99.90
36458;DHT22;22480;50.546;12.292;2022-10-14T13:43:39;16.50;99.90
36458;DHT22;22480;50.546;12.292;2022-10-14T13:46:16;16.80;99.90
36458;DHT22;22480;50.546;12.292;2022-10-14T13:48:49;16.90;99.90
36458;DHT22;22480;50.546;12.292;2022-10-14T13:53:59;16.90;99.90
36458;DHT22;22480;50.546;12.292;2022-10-14T13:56:33;16.70;99.90
36458;DHT22;22480;50.546;12.292;2022-10-14T13:58:59;16.60;99.90
36458;DHT22;22480;50.546;12.292;2022-10-14T14:01:31;16.70;99.90
36458;DHT22;22480;50.546;12.292;2022-10-14T14:03:58;16.90;99.90
36458;DHT22;22480;50.546;12.292;2022-10-14T14:06:26;17.10;99.90
36458;DHT22;22480;50.546;12.292;2022-10-14T14:08:58;17.20;99.90
36458;DHT22;22480;50.546;12.292;2022-10-14T14:11:26;17.00;99.90
36458;DHT22;22480;50.546;12.292;2022-10-14T14:16:24;17.20;99.90
36458;DHT22;22480;50.546;12.292;2022-10-14T14:18:50;17.30;99.90
36458;DHT22;22480;50.546;12.292;2022-10-14T14:21:20;17.20;99.90
36458;DHT22;22480;50.546;12.292;2022-10-14T14:23:55;17.30;99.90
36458;DHT22;22480;50.546;12.292;2022-10-14T14:26:32;17.30;99.90
36458;DHT22;22480;50.546;12.292;2022-10-14T14:28:58;17.40;99.90
36458;DHT22;22480;50.546;12.292;2022-10-14T14:31:26;17.40;99.90
36458;DHT22;22480;50.546;12.292;2022-10-14T14:33:57;17.50;99.90
36458;DHT22;22480;50.546;12.292;2022-10-14T14:36:26;17.70;99.90
36458;DHT22;22480;50.546;12.292;2022-10-14T14:38:58;17.90;99.90
36458;DHT22;22480;50.546;12.292;2022-10-14T14:41:27;18.40;99.90
36458;DHT22;22480;50.546;12.292;2022-10-14T14:44:00;19.20;99.90
36458;DHT22;22480;50.546;12.292;2022-10-14T14:46:33;19.80;99.90
36458;DHT22;22480;50.546;12.292;2022-10-14T14:49:01;20.40;99.90
36458;DHT22;22480;50.546;12.292;2022-10-14T14:51:35;20.90;99.90
36458;DHT22;22480;50.546;12.292;2022-10-14T14:54:02;21.40;99.90
36458;DHT22;22480;50.546;12.292;2022-10-14T14:56:39;21.90;98.40
36458;DHT22;22480;50.546;12.292;2022-10-14T14:59:25;21.90;97.80
36458;DHT22;22480;50.546;12.292;2022-10-14T15:01:54;21.80;96.80
36458;DHT22;22480;50.546;12.292;2022-10-14T15:04:23;21.40;96.50
36458;DHT22;22480;50.546;12.292;2022-10-14T15:07:17;20.50;97.80
36458;DHT22;22480;50.546;12.292;2022-10-14T15:10:00;20.00;98.90
36458;DHT22;22480;50.546;12.292;2022-10-14T15:12:36;19.20;99.90
36458;DHT22;22480;50.546;12.292;2022-10-14T15:18:13;17.40;99.90
36458;DHT22;22480;50.546;12.292;2022-10-14T15:20:40;16.60;99.90
36458;DHT22;22480;50.546;12.292;2022-10-14T15:23:37;16.00;99.90
36458;DHT22;22480;50.546;12.292;2022-10-14T15:29:21;15.20;99.90
36458;DHT22;22480;50.546;12.292;2022-10-14T15:32:12;15.00;99.90
36458;DHT22;22480;50.546;12.292;2022-10-14T15:34:39;14.80;99.90
36458;DHT22;22480;50.546;12.292;2022-10-14T15:37:05;14.70;99.90
36458;DHT22;22480;50.546;12.292;2022-10-14T15:39:34;14.50;99.90
36458;DHT22;22480;50.546;12.292;2022-10-14T15:42:01;14.30;99.90
36458;DHT22;22480;50.546;12.292;2022-10-14T15:44:27;14.20;99.90
36458;DHT22;22480;50.546;12.292;2022-10-14T15:46:54;14.10;99.90
36458;DHT22;22480;50.546;12.292;2022-10-14T15:49:43;14.00;99.90
36458;DHT22;22480;50.546;12.292;2022-10-14T15:52:13;13.90;99.90
36458;DHT22;22480;50.546;12.292;2022-10-14T15:54:40;13.80;99.90
36458;DHT22;22480;50.546;12.292;2022-10-14T15:57:07;13.60;99.90
36458;DHT22;22480;50.546;12.292;2022-10-14T15:59:33;13.50;99.90
36458;DHT22;22480;50.546;12.292;2022-10-14T16:01:59;13.40;99.90
36458;DHT22;22480;50.546;12.292;2022-10-14T16:04:25;13.40;99.90
36458;DHT22;22480;50.546;12.292;2022-10-14T16:06:53;13.30;99.90
36458;DHT22;22480;50.546;12.292;2022-10-14T16:09:24;13.30;99.90
36458;DHT22;22480;50.546;12.292;2022-10-14T16:11:52;13.20;99.90
36458;DHT22;22480;50.546;12.292;2022-10-14T16:14:26;13.20;99.90
36458;DHT22;22480;50.546;12.292;2022-10-14T16:16:52;13.20;99.90
36458;DHT22;22480;50.546;12.292;2022-10-14T16:19:18;13.20;99.90
36458;DHT22;22480;50.546;12.292;2022-10-14T16:21:44;13.30;99.90
36458;DHT22;22480;50.546;12.292;2022-10-14T16:24:20;13.30;99.90
36458;DHT22;22480;50.546;12.292;2022-10-14T16:26:47;13.20;99.90
36458;DHT22;22480;50.546;12.292;2022-10-14T16:29:16;13.30;99.90
36458;DHT22;22480;50.546;12.292;2022-10-14T16:31:43;13.30;99.90
36458;DHT22;22480;50.546;12.292;2022-10-14T16:34:12;13.20;99.90
36458;DHT22;22480;50.546;12.292;2022-10-14T16:36:38;13.30;99.90
36458;DHT22;22480;50.546;12.292;2022-10-14T16:39:04;13.20;99.90
36458;DHT22;22480;50.546;12.292;2022-10-14T16:41:30;13.30;99.90
36458;DHT22;22480;50.546;12.292;2022-10-14T16:43:56;13.30;99.90
36458;DHT22;22480;50.546;12.292;2022-10-14T16:46:22;13.30;99.90
36458;DHT22;22480;50.546;12.292;2022-10-14T16:49:10;13.30;99.90
36458;DHT22;22480;50.546;12.292;2022-10-14T16:51:36;13.30;99.90
36458;DHT22;22480;50.546;12.292;2022-10-14T16:54:02;13.20;99.90
36458;DHT22;22480;50.546;12.292;2022-10-14T16:56:27;13.20;99.90
36458;DHT22;22480;50.546;12.292;2022-10-14T16:59:12;13.10;99.90
36458;DHT22;22480;50.546;12.292;2022-10-14T17:01:38;13.20;99.90
36458;DHT22;22480;50.546;12.292;2022-10-14T17:04:11;13.20;99.90
36458;DHT22;22480;50.546;12.292;2022-10-14T17:06:38;13.20;99.90
36458;DHT22;22480;50.546;12.292;2022-10-14T17:09:04;13.20;99.90
36458;DHT22;22480;50.546;12.292;2022-10-14T17:11:30;13.20;99.90
36458;DHT22;22480;50.546;12.292;2022-10-14T17:13:58;13.30;99.90
36458;DHT22;22480;50.546;12.292;2022-10-14T17:16:24;13.20;99.90
36458;DHT22;22480;50.546;12.292;2022-10-14T17:18:51;13.30;99.90
36458;DHT22;22480;50.546;12.292;2022-10-14T17:21:17;13.30;99.90
36458;DHT22;22480;50.546;12.292;2022-10-14T17:23:43;13.30;99.90
36458;DHT22;22480;50.546;12.292;2022-10-14T17:26:13;13.30;99.90
36458;DHT22;22480;50.546;12.292;2022-10-14T17:28:39;13.40;99.90
36458;DHT22;22480;50.546;12.292;2022-10-14T17:31:07;13.30;99.90
36458;DHT22;22480;50.546;12.292;2022-10-14T17:33:35;13.20;99.90